Time;durP1;ratioP1;P1;durP2;ratioP2;P2;SDS_P1;SDS_P2;PMS_P1;PMS_P2;Temp;Humidity;BMP_temperature;BMP_pressure;BME280_temperature;BME280_humidity;BME280_pressure;Samples;Min_cycle;Max_cycle;Signal;HPM_P1;HPM_P2
2021/04/01 00:01:15;;;;;;;28.93;18.87;;;11.80;14.10;13.20;100830.00;;;;5038334;28;20432;-83
2021/04/01 00:03:45;;;;;;;27.50;17.77;;;11.70;14.50;13.20;100835.00;;;;5044862;28;20529;-82
2021/04/01 00:06:13;;;;;;;33.87;18.83;;;11.70;14.80;13.20;100815.00;;;;5040651;28;20441;-81
2021/04/01 00:08:42;;;;;;;38.17;23.13;;;11.70;15.00;13.10;100821.00;;;;5022873;28;20496;-81
2021/04/01 00:11:10;;;;;;;40.77;22.40;;;11.60;15.60;13.10;100812.00;;;;5015542;28;20875;-81
2021/04/01 00:13:37;;;;;;;26.60;18.83;;;11.50;16.60;13.00;100797.00;;;;5014851;28;20486;-81
2021/04/01 00:16:06;;;;;;;24.50;17.60;;;11.40;16.50;13.00;100802.00;;;;4999011;28;20450;-82
2021/04/01 00:18:36;;;;;;;24.53;16.47;;;11.30;17.30;12.90;100813.00;;;;5026159;28;20927;-83
2021/04/01 00:21:04;;;;;;;29.63;16.47;;;11.30;17.30;12.90;100803.00;;;;5007087;28;20449;-83
2021/04/01 00:23:32;;;;;;;37.03;20.13;;;11.30;17.40;12.80;100812.00;;;;5012486;28;20480;-82
2021/04/01 00:26:02;;;;;;;23.60;15.50;;;11.30;17.70;12.80;100809.00;;;;5008079;28;20462;-82
2021/04/01 00:28:29;;;;;;;15.97;12.60;;;11.30;17.50;12.80;100803.00;;;;5023039;28;20450;-82
2021/04/01 00:30:57;;;;;;;17.33;11.63;;;11.30;17.30;12.70;100811.00;;;;5005896;28;20458;-82
2021/04/01 00:33:24;;;;;;;14.87;10.00;;;11.30;17.30;12.70;100804.00;;;;5004308;28;20525;-81
2021/04/01 00:35:52;;;;;;;17.70;9.93;;;11.30;17.00;12.70;100809.00;;;;5004797;28;20462;-80
2021/04/01 00:38:19;;;;;;;17.60;12.73;;;11.30;16.90;12.70;100801.00;;;;5008453;28;20470;-83
2021/04/01 00:40:47;;;;;;;20.83;14.50;;;11.30;17.00;12.70;100801.00;;;;5018731;28;21994;-81
2021/04/01 00:43:16;;;;;;;21.10;14.20;;;11.30;16.90;12.70;100792.00;;;;5020275;28;20485;-82
2021/04/01 00:45:43;;;;;;;32.33;15.50;;;11.30;17.60;12.60;100794.00;;;;5009056;28;20461;-81
2021/04/01 00:48:11;;;;;;;24.57;16.03;;;11.10;18.70;12.60;100799.00;;;;4999772;28;20454;-81
2021/04/01 00:50:39;;;;;;;16.77;10.40;;;11.00;19.10;12.50;100805.00;;;;4995672;28;20553;-82
2021/04/01 00:53:07;;;;;;;16.20;12.93;;;11.00;19.10;12.50;100812.00;;;;5012857;28;20488;-83
2021/04/01 00:55:35;;;;;;;15.17;11.10;;;11.00;19.10;12.40;100796.00;;;;5025142;28;20930;-82
2021/04/01 00:58:04;;;;;;;21.37;12.63;;;11.00;18.70;12.40;69022.00;;;;5002870;28;20473;-81
2021/04/01 01:00:34;;;;;;;15.17;11.67;;;11.00;18.80;12.40;100793.00;;;;5013774;28;20453;-81
2021/04/01 01:03:02;;;;;;;17.50;11.67;;;11.00;19.10;12.40;100788.00;;;;5005670;28;21222;-81
2021/04/01 01:05:32;;;;;;;15.50;11.30;;;11.00;19.60;12.40;100792.00;;;;5011617;28;20452;-81
2021/04/01 01:08:00;;;;;;;14.33;11.10;;;10.90;19.60;12.30;100793.00;;;;5008197;28;20452;-82
2021/04/01 01:10:31;;;;;;;23.30;12.37;;;10.80;19.70;12.30;100795.00;;;;5016303;28;20820;-81
2021/04/01 01:13:02;;;;;;;18.73;11.80;;;10.80;20.20;12.20;100797.00;;;;5011656;28;20472;-83
2021/04/01 01:15:30;;;;;;;12.93;11.33;;;10.70;20.30;12.20;100794.00;;;;5002410;28;20835;-82
2021/04/01 01:17:58;;;;;;;14.13;11.50;;;10.70;20.40;12.10;100791.00;;;;5003477;28;20473;-83
2021/04/01 01:20:28;;;;;;;15.93;11.83;;;10.70;20.30;12.10;100792.00;;;;5003678;28;20456;-81
2021/04/01 01:23:18;;;;;;;18.70;11.57;;;10.70;20.80;12.10;100787.00;;;;5031649;28;20495;-81
2021/04/01 01:25:46;;;;;;;16.20;11.70;;;10.60;21.40;12.00;100777.00;;;;5003967;28;20456;-81
2021/04/01 01:28:14;;;;;;;17.43;13.10;;;10.60;21.30;12.00;100783.00;;;;5004993;28;20489;-81
2021/04/01 01:30:42;;;;;;;18.20;13.30;;;10.50;21.70;11.90;100779.00;;;;5017879;28;20549;-83
2021/04/01 01:33:16;;;;;;;20.10;13.47;;;10.40;22.70;11.90;100785.00;;;;5006747;28;20479;-83
2021/04/01 01:35:44;;;;;;;22.27;14.13;;;10.20;23.90;11.80;100792.00;;;;4997242;28;20494;-81
2021/04/01 01:38:11;;;;;;;16.03;12.30;;;10.20;24.90;11.70;100798.00;;;;4998350;28;20474;-83
2021/04/01 01:40:39;;;;;;;21.33;13.70;;;10.20;24.70;11.70;100784.00;;;;5006717;28;21164;-83
2021/04/01 01:43:09;;;;;;;22.00;12.00;;;10.20;24.50;11.70;100786.00;;;;5016091;28;20507;-82
2021/04/01 01:45:38;;;;;;;16.03;12.60;;;10.20;24.60;11.70;100791.00;;;;5016618;28;20539;-80
2021/04/01 01:48:07;;;;;;;15.83;11.63;;;10.20;24.40;217.30;161733.00;;;;5022670;28;20511;-81
2021/04/01 01:50:38;;;;;;;20.30;13.60;;;10.30;24.60;11.70;100783.00;;;;5007034;28;21237;-82
2021/04/01 01:53:07;;;;;;;16.60;12.27;;;10.20;24.50;11.60;100795.00;;;;5017906;28;20489;-82
2021/04/01 01:55:38;;;;;;;17.47;11.20;;;10.10;24.40;11.60;100785.00;;;;5027143;28;20683;-82
2021/04/01 01:58:10;;;;;;;19.27;11.77;;;10.10;24.40;11.60;100783.00;;;;5015990;28;20501;-80
2021/04/01 02:00:42;;;;;;;18.20;11.43;;;10.10;24.30;11.60;100788.00;;;;5009510;28;20488;-81
2021/04/01 02:03:11;;;;;;;20.07;12.17;;;10.10;24.60;11.60;100773.00;;;;5022068;28;21056;-81
2021/04/01 02:05:40;;;;;;;21.90;12.30;;;10.20;25.00;11.60;100781.00;;;;5017259;28;20489;-80
2021/04/01 02:08:10;;;;;;;16.90;12.07;;;10.10;25.10;11.50;100787.00;;;;5017011;28;20462;-81
2021/04/01 02:10:40;;;;;;;16.17;11.40;;;10.00;25.80;11.40;100789.00;;;;5015279;28;20481;-82
2021/04/01 02:13:09;;;;;;;14.77;11.40;;;9.80;26.90;11.30;100785.00;;;;5019700;28;20505;-82
2021/04/01 02:15:39;;;;;;;13.07;10.83;;;9.80;27.40;11.40;100787.00;;;;5018311;28;20441;-80
2021/04/01 02:18:09;;;;;;;17.20;11.13;;;9.90;27.40;11.40;100804.00;;;;5020059;28;20530;-80
2021/04/01 02:20:41;;;;;;;18.93;11.00;;;9.90;27.60;11.40;100795.00;;;;5018641;28;20445;-80
2021/04/01 02:23:10;;;;;;;16.60;11.23;;;9.90;27.40;11.30;100790.00;;;;5034267;28;20555;-81
2021/04/01 02:25:39;;;;;;;22.20;12.30;;;9.90;27.60;11.30;100806.00;;;;5019078;28;20466;-82
2021/04/01 02:28:11;;;;;;;19.73;11.93;;;9.90;27.50;11.20;100795.00;;;;5019519;28;20930;-81
2021/04/01 02:30:40;;;;;;;17.40;12.00;;;9.80;27.70;11.20;100784.00;;;;5020369;28;20493;-81
2021/04/01 02:33:09;;;;;;;22.83;10.87;;;9.70;28.00;11.20;100793.00;;;;5018787;28;20465;-81
2021/04/01 02:35:37;;;;;;;19.10;12.50;;;9.70;28.50;11.20;100807.00;;;;5015810;28;20468;-81
2021/04/01 02:38:05;;;;;;;16.80;12.47;;;9.70;28.70;11.10;100799.00;;;;5017533;28;20561;-80
2021/04/01 02:40:34;;;;;;;22.53;12.60;;;9.50;29.10;11.10;100794.00;;;;5018008;28;20991;-82
2021/04/01 02:43:01;;;;;;;14.03;11.30;;;9.50;29.80;217.30;161456.00;;;;5017530;28;20481;-81
2021/04/01 02:45:30;;;;;;;15.40;11.50;;;9.50;31.00;11.00;100805.00;;;;5017382;28;20489;-81
2021/04/01 02:47:58;;;;;;;17.40;10.17;;;9.50;30.50;11.00;100793.00;;;;5018545;28;20457;-80
2021/04/01 02:50:25;;;;;;;13.20;10.63;;;9.50;30.00;11.00;100800.00;;;;5017837;28;20539;-82
2021/04/01 02:52:53;;;;;;;17.20;11.20;;;9.40;29.80;11.00;100779.00;;;;5036090;28;20464;-81
2021/04/01 02:55:21;;;;;;;16.37;11.40;;;9.50;29.80;11.00;68698.00;;;;5022153;28;20445;-81
2021/04/01 02:57:48;;;;;;;12.97;10.33;;;9.50;29.70;11.00;100777.00;;;;5016530;28;20461;-80
2021/04/01 03:00:22;;;;;;;16.73;11.50;;;9.50;29.60;11.00;100778.00;;;;5016870;28;20479;-81
2021/04/01 03:02:54;;;;;;;14.83;10.10;;;9.40;29.70;11.00;100786.00;;;;5009210;28;20472;-82
2021/04/01 03:05:21;;;;;;;13.20;11.80;;;9.40;29.90;11.00;68689.00;;;;5018335;28;20849;-81
2021/04/01 03:07:48;;;;;;;18.77;10.80;;;9.40;30.10;10.90;100773.00;;;;5018991;28;20908;-82
2021/04/01 03:10:16;;;;;;;15.50;10.40;;;9.40;30.50;10.90;100783.00;;;;5016986;28;20461;-81
2021/04/01 03:12:43;;;;;;;14.60;10.63;;;9.40;30.80;10.90;100774.00;;;;5002056;28;21133;-81
2021/04/01 03:15:12;;;;;;;15.30;10.63;;;9.30;31.00;10.90;100782.00;;;;5034577;28;20453;-80
2021/04/01 03:17:42;;;;;;;13.73;10.90;;;9.20;31.50;10.80;100794.00;;;;5016691;28;20463;-81
2021/04/01 03:20:12;;;;;;;15.73;10.93;;;9.20;31.90;10.80;100768.00;;;;5018840;28;21006;-82
2021/04/01 03:22:40;;;;;;;12.93;10.60;;;9.00;32.50;10.70;100769.00;;;;5019182;28;20488;-82
2021/04/01 03:25:11;;;;;;;23.17;10.93;;;8.90;33.30;10.70;100786.00;;;;5016269;28;20454;-80
2021/04/01 03:27:39;;;;;;;13.20;10.13;;;8.80;33.80;10.60;100784.00;;;;5018924;28;20449;-81
2021/04/01 03:30:11;;;;;;;13.67;11.07;;;8.80;35.10;10.60;100777.00;;;;5019152;28;20449;-82
2021/04/01 03:32:42;;;;;;;22.30;11.13;;;8.80;35.60;10.60;100792.00;;;;5018662;28;20497;-82
2021/04/01 03:35:13;;;;;;;11.70;10.37;;;8.80;35.80;10.50;100780.00;;;;5020066;28;20452;-81
2021/04/01 03:37:42;;;;;;;12.47;10.13;;;8.80;36.10;10.50;100781.00;;;;5022512;28;20542;-80
2021/04/01 03:40:13;;;;;;;12.60;10.13;;;8.80;36.00;10.50;100792.00;;;;5021362;28;20529;-82
2021/04/01 03:42:40;;;;;;;14.90;10.83;;;8.80;35.90;10.50;100785.00;;;;5055272;28;20491;-83
2021/04/01 03:45:10;;;;;;;14.00;10.80;;;8.70;35.80;10.50;100795.00;;;;5038356;28;20464;-82
2021/04/01 03:47:39;;;;;;;11.90;10.70;;;8.70;36.30;10.40;100786.00;;;;5023441;28;20454;-81
2021/04/01 03:50:12;;;;;;;12.97;10.03;;;8.80;36.40;10.50;100782.00;;;;5021215;28;20453;-82
2021/04/01 03:52:42;;;;;;;13.57;10.90;;;8.80;36.10;10.50;100778.00;;;;5029863;28;20505;-81
2021/04/01 03:55:21;;;;;;;13.60;11.03;;;8.90;36.10;10.50;100784.00;;;;5025361;28;20456;-79
2021/04/01 03:57:50;;;;;;;16.67;10.53;;;8.80;35.70;10.40;100791.00;;;;5021368;28;21053;-81
2021/04/01 04:00:21;;;;;;;12.60;10.73;;;8.80;36.00;10.40;100767.00;;;;5021349;28;20539;-80
2021/04/01 04:02:57;;;;;;;16.97;11.40;;;8.70;36.40;10.40;100757.00;;;;5044078;28;20466;-83
2021/04/01 04:05:37;;;;;;;14.17;11.00;;;8.70;36.60;10.40;100794.00;;;;5025513;28;20463;-82
2021/04/01 04:08:20;;;;;;;18.23;11.23;;;8.60;37.40;10.30;100809.00;;;;5029506;28;20449;-83
2021/04/01 04:10:57;;;;;;;16.10;10.50;;;8.60;37.90;217.30;161114.00;;;;5022515;28;20465;-81
2021/04/01 04:13:30;;;;;;;16.87;11.50;;;8.70;38.10;10.40;100800.00;;;;5041733;28;20544;-83
2021/04/01 04:15:58;;;;;;;15.73;10.57;;;8.70;37.80;10.40;100803.00;;;;5028763;28;20537;-82
2021/04/01 04:18:27;;;;;;;12.30;10.30;;;8.90;37.50;10.40;100799.00;;;;5032062;28;20482;-82
2021/04/01 04:20:56;;;;;;;13.40;10.30;;;8.90;37.90;10.40;100801.00;;;;5031237;28;20481;-81
2021/04/01 04:23:24;;;;;;;14.03;10.43;;;8.80;36.90;10.50;100798.00;;;;5029701;28;20500;-81
2021/04/01 04:25:55;;;;;;;14.13;10.80;;;8.90;36.80;10.50;100803.00;;;;5030388;28;20477;-82
2021/04/01 04:28:31;;;;;;;13.53;10.77;;;9.00;36.40;10.60;100804.00;;;;5026140;28;20590;-81
2021/04/01 04:30:58;;;;;;;17.67;11.63;;;9.00;36.10;10.50;100789.00;;;;5021022;28;20445;-81
2021/04/01 04:33:26;;;;;;;22.80;11.20;;;9.00;36.40;10.50;100802.00;;;;5023056;28;20483;-81
2021/04/01 04:35:55;;;;;;;17.23;11.23;;;9.00;36.50;10.60;100785.00;;;;5032074;28;20449;-83
2021/04/01 04:38:23;;;;;;;16.57;10.87;;;9.00;36.40;10.60;100794.00;;;;5032740;28;20473;-82
2021/04/01 04:40:55;;;;;;;19.20;12.00;;;9.00;36.50;10.60;100804.00;;;;5030877;28;20456;-83
2021/04/01 04:43:23;;;;;;;17.17;11.80;;;9.00;36.40;10.60;100796.00;;;;5033445;28;20486;-87
2021/04/01 04:45:51;;;;;;;15.10;11.50;;;9.00;36.40;10.60;100793.00;;;;5040861;28;20563;-79
2021/04/01 04:48:20;;;;;;;18.73;11.00;;;9.00;36.70;10.60;100797.00;;;;5018486;28;20450;-78
2021/04/01 04:50:48;;;;;;;18.27;11.50;;;9.00;36.50;10.70;100789.00;;;;5017272;28;20458;-79
2021/04/01 04:53:17;;;;;;;21.17;11.87;;;9.00;36.40;10.70;100795.00;;;;5018655;28;21088;-79
2021/04/01 04:55:55;;;;;;;21.20;12.03;;;9.10;36.60;10.70;100798.00;;;;5018863;28;20548;-79
2021/04/01 04:58:25;;;;;;;19.43;12.03;;;9.10;36.50;10.70;100788.00;;;;5019464;28;20559;-80
2021/04/01 05:01:03;;;;;;;15.03;11.23;;;9.00;36.70;10.60;100784.00;;;;5002173;28;20487;-84
2021/04/01 05:06:38;;;;;;;13.90;11.60;;;9.00;36.70;10.60;100801.00;;;;5018937;28;20528;-78
2021/04/01 05:09:07;;;;;;;22.67;13.00;;;8.90;36.60;10.50;100801.00;;;;5024643;28;20453;-80
2021/04/01 05:11:34;;;;;;;18.87;11.20;;;8.90;36.70;10.50;100780.00;;;;5020163;28;20483;-80
2021/04/01 05:14:02;;;;;;;24.53;11.93;;;8.90;37.10;10.60;100797.00;;;;5037192;28;20456;-80
2021/04/01 05:16:31;;;;;;;14.03;11.33;;;9.00;37.00;10.70;100801.00;;;;5037431;28;20461;-80
2021/04/01 05:19:00;;;;;;;18.33;13.20;;;9.00;36.90;10.80;100787.00;;;;5034041;28;20889;-81
2021/04/01 05:21:31;;;;;;;17.93;13.00;;;9.10;36.40;10.70;100804.00;;;;5025840;28;20507;-81
2021/04/01 05:24:01;;;;;;;20.60;12.00;;;9.10;36.30;10.70;100804.00;;;;5024701;28;20538;-82
2021/04/01 05:29:14;;;;;;;21.13;12.20;;;9.10;36.10;10.80;100804.00;;;;5020349;28;20449;-81
2021/04/01 05:31:42;;;;;;;32.13;12.23;;;9.10;35.90;10.90;100800.00;;;;5041544;28;20524;-82
2021/04/01 05:34:10;;;;;;;22.87;12.00;;;9.10;36.30;10.90;100807.00;;;;5028982;28;20450;-81
2021/04/01 05:36:40;;;;;;;29.27;13.07;;;9.20;35.90;11.00;100800.00;;;;5029456;28;20457;-82
2021/04/01 05:39:11;;;;;;;28.83;16.37;;;9.30;35.70;11.00;100811.00;;;;5039298;28;20480;-82
2021/04/01 05:41:41;;;;;;;27.37;13.20;;;9.30;35.30;11.00;100805.00;;;;5020820;28;20474;-81
2021/04/01 05:44:16;;;;;;;28.23;12.93;;;9.40;35.10;11.10;100814.00;;;;5026389;28;20467;-80
2021/04/01 05:46:51;;;;;;;33.00;13.47;;;9.40;34.60;11.10;100794.00;;;;5029676;28;20457;-82
2021/04/01 05:49:42;;;;;;;19.20;11.77;;;9.40;34.80;11.10;100821.00;;;;5033918;28;20483;-81
2021/04/01 06:04:09;;;;;;;23.33;12.93;;;9.60;34.00;11.40;100821.00;;;;5002605;28;20467;-80
2021/04/01 06:06:43;;;;;;;21.17;12.13;;;9.60;33.20;11.50;100834.00;;;;5002162;28;20465;-81
2021/04/01 06:09:21;;;;;;;16.63;11.53;;;9.60;32.60;11.50;100817.00;;;;5021992;28;20464;-81
2021/04/01 06:11:53;;;;;;;17.77;12.47;;;9.70;32.20;11.70;100834.00;;;;5030658;28;20475;-81
2021/04/01 06:14:59;;;;;;;22.60;11.73;;;9.80;32.20;11.70;100828.00;;;;5042573;28;20461;-82
2021/04/01 06:17:33;;;;;;;18.73;11.60;;;9.90;31.50;11.70;100830.00;;;;5046371;28;20453;-80
2021/04/01 06:20:05;;;;;;;17.97;11.07;;;10.00;30.00;11.80;100831.00;;;;5047174;28;20468;-80
2021/04/01 06:22:33;;;;;;;21.23;11.17;;;10.00;29.40;11.70;100837.00;;;;5040200;28;20446;-79
2021/04/01 06:25:01;;;;;;;16.73;11.30;;;10.20;29.50;11.70;100831.00;;;;5049305;28;20446;-80
2021/04/01 06:27:37;;;;;;;22.27;13.20;;;10.10;28.70;11.80;100843.00;;;;5051638;28;20461;-82
2021/04/01 06:30:16;;;;;;;19.37;12.00;;;10.20;28.10;12.00;100844.00;;;;5037492;28;20468;-82
2021/04/01 06:32:47;;;;;;;20.80;12.13;;;10.30;28.10;12.10;100835.00;;;;5034777;28;20531;-83
2021/04/01 06:35:23;;;;;;;24.13;12.60;;;10.40;28.40;12.20;100844.00;;;;5024573;28;20446;-82
2021/04/01 06:38:27;;;;;;;27.90;12.93;;;10.50;27.00;12.20;100844.00;;;;5025392;28;20882;-79
2021/04/01 06:40:58;;;;;;;18.20;12.43;;;10.60;26.20;12.30;100846.00;;;;5024629;28;20465;-82
2021/04/01 06:43:44;;;;;;;20.80;13.27;;;10.60;26.10;12.30;100844.00;;;;5028350;28;20501;-82
2021/04/01 06:46:16;;;;;;;23.87;15.07;;;10.70;26.00;12.40;100859.00;;;;5027664;28;20508;-82
2021/04/01 06:49:23;;;;;;;20.00;14.63;;;10.80;26.50;12.50;100853.00;;;;5030544;28;21519;-82
2021/04/01 06:51:58;;;;;;;21.57;13.43;;;10.90;25.80;12.70;100857.00;;;;5030306;28;20883;-82
2021/04/01 06:54:33;;;;;;;22.43;14.80;;;11.00;24.10;12.90;100861.00;;;;5009007;28;20460;-82
2021/04/01 06:57:23;;;;;;;22.37;13.73;;;11.20;22.30;13.00;100857.00;;;;5033943;28;20519;-81
2021/04/01 07:00:09;;;;;;;22.03;13.03;;;11.40;21.90;13.30;100859.00;;;;5025529;28;20481;-81
2021/04/01 07:02:55;;;;;;;14.53;10.17;;;11.70;21.30;13.60;100854.00;;;;5041724;28;20521;-81
2021/04/01 07:05:26;;;;;;;11.07;9.63;;;11.90;19.80;13.90;100849.00;;;;5029765;28;20465;-82
2021/04/01 07:07:58;;;;;;;16.07;11.23;;;12.10;17.60;14.00;100856.00;;;;5015607;28;20493;-82
2021/04/01 07:10:42;;;;;;;14.23;10.37;;;12.40;16.30;14.30;100847.00;;;;5031596;28;20456;-82
2021/04/01 07:13:15;;;;;;;17.60;10.93;;;12.60;15.40;14.40;100846.00;;;;5036807;28;20491;-81
2021/04/01 07:16:16;;;;;;;11.30;10.10;;;12.70;14.90;14.70;100835.00;;;;5041327;28;20453;-82
2021/04/01 07:19:01;;;;;;;14.30;11.00;;;12.90;14.70;14.90;100830.00;;;;5043214;28;20481;-82
2021/04/01 07:35:48;;;;;;;20.43;12.40;;;13.70;11.10;15.90;100838.00;;;;5027416;28;20453;-83
2021/04/01 07:46:50;;;;;;;15.10;11.27;;;14.00;9.80;16.10;100838.00;;;;5030589;28;20500;-83
2021/04/01 07:49:23;;;;;;;17.33;12.40;;;14.10;9.40;16.10;100834.00;;;;5027982;28;20548;-83
2021/04/01 07:52:02;;;;;;;19.67;12.97;;;14.10;9.20;16.20;100858.00;;;;5025542;28;20484;-82
2021/04/01 07:54:43;;;;;;;18.53;12.50;;;14.20;10.20;16.20;100864.00;;;;5012515;28;20449;-83
2021/04/01 07:57:27;;;;;;;16.80;12.23;;;14.30;8.90;16.20;100855.00;;;;5040158;28;20500;-84
2021/04/01 08:00:08;;;;;;;15.70;11.73;;;14.40;8.70;16.30;100858.00;;;;5022151;28;21026;-85
2021/04/01 08:02:58;;;;;;;12.93;11.20;;;14.50;8.00;16.40;100848.00;;;;5009425;28;20528;-85
2021/04/01 08:05:28;;;;;;;20.60;12.40;;;14.60;7.50;16.80;100853.00;;;;5009127;28;20577;-82
2021/04/01 08:08:00;;;;;;;25.47;13.60;;;14.70;7.00;17.00;100850.00;;;;5025485;28;20500;-81
2021/04/01 08:10:34;;;;;;;15.23;12.50;;;14.90;6.80;17.20;100850.00;;;;5019579;28;21334;-85
2021/04/01 08:13:06;;;;;;;20.83;12.27;;;15.10;6.40;17.40;100853.00;;;;5005098;28;20496;-82
2021/04/01 08:15:40;;;;;;;16.37;11.30;;;15.30;6.00;17.50;100844.00;;;;5018870;28;20458;-84
2021/04/01 08:18:21;;;;;;;21.70;12.70;;;15.40;5.00;17.50;100843.00;;;;5021620;28;20805;-84
2021/04/01 08:20:52;;;;;;;20.53;12.73;;;15.50;5.10;17.40;100845.00;;;;5021289;28;20480;-85
2021/04/01 08:23:51;;;;;;;20.90;12.50;;;15.40;4.80;17.40;100860.00;;;;5021142;28;20533;-83
2021/04/01 08:26:52;;;;;;;18.87;13.50;;;15.40;5.00;17.40;100847.00;;;;5003965;28;20449;-84
2021/04/01 08:33:07;;;;;;;19.77;12.47;;;15.30;5.30;17.10;100862.00;;;;5022402;28;20507;-85
2021/04/01 08:35:58;;;;;;;17.90;13.80;;;15.30;5.00;17.20;100858.00;;;;5008612;28;20461;-81
2021/04/01 08:38:46;;;;;;;22.17;13.43;;;15.40;5.00;17.30;100852.00;;;;5024870;28;20565;-84
2021/04/01 08:41:54;;;;;;;19.73;13.10;;;15.60;4.50;17.50;100859.00;;;;5026592;28;20465;-83
2021/04/01 08:45:15;;;;;;;18.57;13.17;;;15.70;4.00;17.60;100844.00;;;;5041466;28;20842;-85
2021/04/01 08:48:40;;;;;;;21.20;14.33;;;15.90;3.80;17.80;100854.00;;;;5033028;28;20552;-81
2021/04/01 08:51:53;;;;;;;15.10;13.50;;;16.10;3.40;18.20;100839.00;;;;5028811;28;20472;-82
2021/04/01 08:54:31;;;;;;;17.03;13.33;;;16.40;2.50;18.60;100838.00;;;;5030723;28;20458;-81
2021/04/01 08:57:09;;;;;;;17.10;14.23;;;16.80;1.70;19.00;100830.00;;;;5013050;28;20473;-80
2021/04/01 08:59:48;;;;;;;20.00;13.63;;;17.10;1.10;19.30;100843.00;;;;5011336;28;20478;-83
2021/04/01 09:02:22;;;;;;;25.40;13.50;;;17.30;1.00;19.30;100824.00;;;;5028018;28;20508;-80
2021/04/01 09:04:52;;;;;;;16.60;14.40;;;17.30;1.00;19.40;100819.00;;;;5038272;28;20463;-82
2021/04/01 09:07:26;;;;;;;23.27;14.17;;;17.20;1.00;19.40;100821.00;;;;5038881;28;20440;-82
2021/04/01 09:10:04;;;;;;;18.23;14.07;;;17.30;1.00;19.40;100817.00;;;;5011134;28;20461;-84
2021/04/01 09:12:44;;;;;;;21.33;15.73;;;17.50;1.00;19.20;100828.00;;;;5022619;28;20487;-81
2021/04/01 09:15:23;;;;;;;20.57;15.43;;;17.40;1.00;18.90;100824.00;;;;5022004;28;21046;-82
2021/04/01 09:17:51;;;;;;;24.30;15.60;;;17.30;1.00;18.80;100821.00;;;;5004533;28;20461;-81
2021/04/01 09:20:22;;;;;;;23.33;15.13;;;17.30;1.00;18.80;100827.00;;;;5042766;28;20481;-81
2021/04/01 09:22:56;;;;;;;21.40;15.63;;;17.30;1.00;18.70;100820.00;;;;5019793;28;20551;-83
2021/04/01 09:25:37;;;;;;;18.00;16.07;;;17.30;1.00;18.70;100820.00;;;;5017274;28;20456;-81
2021/04/01 09:28:08;;;;;;;22.47;15.67;;;17.30;1.00;18.80;100813.00;;;;5018485;28;20486;-83
2021/04/01 09:30:36;;;;;;;24.37;15.87;;;17.30;1.00;18.80;100817.00;;;;5017174;28;20504;-82
2021/04/01 09:33:10;;;;;;;21.77;15.33;;;17.40;1.00;18.90;100809.00;;;;5026373;28;20574;-82
2021/04/01 09:35:39;;;;;;;22.90;16.70;;;17.50;1.00;18.90;100815.00;;;;5036189;28;20537;-80
2021/04/01 09:38:10;;;;;;;23.87;17.20;;;17.60;1.00;18.90;100803.00;;;;5026287;28;20461;-81
2021/04/01 09:40:45;;;;;;;22.40;17.63;;;17.60;1.00;19.00;100804.00;;;;5015826;28;20519;-83
2021/04/01 09:43:16;;;;;;;26.30;17.50;;;17.70;1.00;19.10;100817.00;;;;5014494;28;20503;-82
2021/04/01 09:45:44;;;;;;;25.60;16.90;;;17.80;1.00;19.20;100817.00;;;;5019676;28;20511;-81
2021/04/01 09:48:13;;;;;;;30.47;17.00;;;18.00;1.00;19.20;100797.00;;;;5021047;28;20453;-81
2021/04/01 09:50:43;;;;;;;22.47;16.43;;;18.10;1.00;19.30;100807.00;;;;5017973;28;20472;-81
2021/04/01 09:53:18;;;;;;;24.87;17.33;;;18.30;1.00;19.40;100808.00;;;;5021739;28;20476;-83
2021/04/01 09:55:50;;;;;;;26.37;16.13;;;18.40;1.00;19.50;100814.00;;;;5022572;28;21574;-80
2021/04/01 09:58:23;;;;;;;30.40;18.40;;;18.50;1.00;19.60;100808.00;;;;5023646;28;20556;-79
2021/04/01 10:03:52;;;;;;;27.40;17.67;;;18.70;1.00;19.70;100814.00;;;;5018011;28;20821;-80
2021/04/01 10:06:35;;;;;;;27.30;17.50;;;18.80;1.00;19.80;100824.00;;;;5021285;28;20833;-79
2021/04/01 10:09:11;;;;;;;25.70;18.00;;;18.90;1.00;20.00;100811.00;;;;5019913;28;20507;-79
2021/04/01 10:11:46;;;;;;;27.43;18.63;;;19.00;1.00;20.00;100804.00;;;;5035934;28;20472;-82
2021/04/01 10:14:16;;;;;;;29.23;18.07;;;19.20;1.00;20.20;100806.00;;;;5009591;28;20456;-82
2021/04/01 10:16:58;;;;;;;28.67;18.23;;;19.30;1.00;20.30;100804.00;;;;5019392;28;20895;-80
2021/04/01 10:19:30;;;;;;;32.30;20.30;;;19.40;1.00;20.40;100807.00;;;;5038607;28;20471;-80
2021/04/01 10:21:59;;;;;;;27.40;19.67;;;19.60;1.00;20.50;100805.00;;;;5038108;28;20509;-79
2021/04/01 10:24:31;;;;;;;29.43;18.97;;;19.70;1.00;20.70;100799.00;;;;5015881;28;20575;-79
2021/04/01 10:27:05;;;;;;;27.70;18.83;;;19.90;1.00;20.90;100799.00;;;;5004260;28;20530;-80
2021/04/01 10:29:43;;;;;;;30.43;19.17;;;20.10;1.00;21.00;100801.00;;;;5019746;28;20581;-81
2021/04/01 10:32:12;;;;;;;26.90;18.90;;;20.20;1.00;21.10;100791.00;;;;5022197;28;21375;-82
2021/04/01 10:34:52;;;;;;;25.10;20.40;;;20.30;1.00;21.20;100791.00;;;;5023063;28;20448;-81
2021/04/01 10:37:21;;;;;;;33.10;20.47;;;20.40;1.00;21.30;100787.00;;;;5024105;28;20900;-82
2021/04/01 10:39:51;;;;;;;30.57;20.23;;;20.50;1.00;21.30;100788.00;;;;5026705;28;20461;-81
2021/04/01 10:42:26;;;;;;;33.13;21.00;;;20.60;1.00;21.40;100790.00;;;;5025643;28;20480;-81
2021/04/01 10:45:00;;;;;;;31.70;21.00;;;20.70;1.00;21.50;100787.00;;;;5024921;28;20477;-80
2021/04/01 10:47:54;;;;;;;33.40;21.00;;;20.80;1.00;21.50;100785.00;;;;5027132;28;20463;-80
2021/04/01 10:50:21;;;;;;;28.70;21.10;;;21.00;1.00;21.60;100782.00;;;;5037175;28;20449;-83
2021/04/01 10:52:49;;;;;;;31.90;20.73;;;21.10;1.00;21.60;100793.00;;;;5047550;28;20507;-82
2021/04/01 10:55:17;;;;;;;34.00;22.73;;;21.10;1.00;21.70;100788.00;;;;5032554;28;20480;-81
2021/04/01 10:57:45;;;;;;;33.63;22.20;;;21.20;1.00;21.80;100782.00;;;;5025166;28;20588;-79
2021/04/01 11:00:15;;;;;;;29.10;21.70;;;21.20;1.00;21.90;100795.00;;;;5023980;28;20476;-79
2021/04/01 11:02:49;;;;;;;30.70;22.23;;;21.40;1.00;21.90;100787.00;;;;5021634;28;21006;-80
2021/04/01 11:05:20;;;;;;;29.73;22.13;;;21.40;1.00;22.00;100786.00;;;;5010540;28;20466;-80
2021/04/01 11:07:50;;;;;;;30.33;21.83;;;21.40;1.00;22.10;100774.00;;;;5038255;28;20457;-80
2021/04/01 11:10:24;;;;;;;28.90;21.03;;;21.50;1.00;22.30;100772.00;;;;5045311;28;20666;-80
2021/04/01 11:12:58;;;;;;;35.30;22.63;;;21.70;1.00;22.40;100768.00;;;;5043849;28;20474;-82
2021/04/01 11:15:27;;;;;;;33.53;21.20;;;22.00;1.00;22.60;100768.00;;;;5034284;28;20842;-80
2021/04/01 11:18:01;;;;;;;31.13;21.13;;;22.20;1.00;22.90;100759.00;;;;5023924;28;20472;-80
2021/04/01 11:20:33;;;;;;;30.30;20.93;;;22.50;1.00;23.20;100762.00;;;;5019275;28;20501;-80
2021/04/01 11:23:04;;;;;;;31.67;20.13;;;22.70;1.00;23.60;100751.00;;;;5021395;28;21070;-80
2021/04/01 11:25:32;;;;;;;29.20;20.10;;;23.10;1.00;24.00;100749.00;;;;5028199;28;21348;-80
2021/04/01 11:28:01;;;;;;;26.80;20.40;;;23.40;1.00;24.20;100753.00;;;;5028174;28;20453;-80
2021/04/01 11:30:50;;;;;;;31.43;21.87;;;23.60;1.00;24.40;100746.00;;;;5006707;28;20457;-77
2021/04/01 11:33:20;;;;;;;28.07;20.70;;;23.70;1.00;24.50;100750.00;;;;5026770;28;20472;-79
2021/04/01 11:35:59;;;;;;;32.40;21.60;;;23.70;1.00;24.50;100736.00;;;;5036175;28;20874;-80
2021/04/01 11:38:29;;;;;;;31.87;21.30;;;23.80;1.00;24.60;100727.00;;;;5037761;28;20464;-80
2021/04/01 11:41:01;;;;;;;29.00;21.60;;;23.90;1.00;24.60;100718.00;;;;5040672;28;20479;-80
2021/04/01 11:43:33;;;;;;;30.00;21.57;;;23.90;1.00;24.60;100718.00;;;;5029928;28;20575;-80
2021/04/01 11:46:13;;;;;;;38.63;25.20;;;24.00;1.00;24.40;100724.00;;;;5008798;28;20487;-79
2021/04/01 11:48:41;;;;;;;38.63;23.50;;;23.80;1.00;24.20;100720.00;;;;5022568;28;20677;-81
2021/04/01 11:51:19;;;;;;;32.33;22.73;;;23.70;1.00;24.20;100718.00;;;;5022314;28;20476;-80